Kaplan, LA (70548)

12:22 AM CST on December 26, 2014 (GMT -0600)
Mouton Cove | Change Station
CLOSE
Current Station
Personal Weather Station
Location: Abbeville, LA
Elevation: 32 ft
Nearby Weather Stations

Elev 32 ft 29.88 °N, 92.22 °W | Updated 4 seconds ago

Partly Cloudy
Partly Cloudy
53.2 °F
Feels Like 53.2 °F
N
3.8
Wind Variable Wind from East
Gusts 5.4 mph

Today
High -- | Low -- °F
--% Chance of Precip.
Yesterday
High -- | Low -- °F
Precip. -- in
7:03 AM 5:16 PM
Waxing Crescent, 23% visible
Pressure 30.16 in
Visibility 10.0 miles
Clouds Clear
Dew Point 53 °F
Humidity 99%
Rainfall 0.00 in
Snow Depth Not available.
UV 0 out of 12
Pollen 5.70 out of 12
Air Quality Not available.
Flu Activity Not available.
METAR KIYA 260555Z AUTO 10004KT 10SM CLR 09/07 A3016 RMK AO2 T00860068 10096 20086 TSNO

More Conditions Fewer Conditions

Pressure 30.16 in
Visibility 10.0 miles
Clouds Clear
Dew Point 53 °F
Humidity 99%
Rainfall 0.00 in
Snow Depth Not available.
UV 0 out of 12
Pollen 5.70 out of 12
Air Quality Not available.
Flu Activity Not available.
METAR KIYA 260555Z AUTO 10004KT 10SM CLR 09/07 A3016 RMK AO2 T00860068 10096 20086 TSNO

More Conditions Fewer Conditions

10-Day Weather Forecast

Almanac

Astronomy

Dec. 26, 2014 Rise Set
Actual Time
Civil Twilight
Nautical Twilight
Astronomical Twilight
Moon
Length of Visible Light
Length of Day
Tomorrow will be .
, % of the Moon is Illuminated

Today's Extremes

State Highs State Lows

Community

WunderPhotos

Upload Photos

1,780,556 photos uploaded!

WunderBlogs® & News

Nearby

Air Quality

  Air Quality AQ Index Pollutant
Not available.

Snow Depth

Station Depth Elevation

Earthquake Activity

City Distance Mag. Time & Date
Minimum magnitude displayed is 2.5.

Coastal Water Temperatures

Place Temperature

Nearby Weather Stations